sensor_id;sensor_type;location;lat;lon;timestamp;pressure;altitude;pressure_sealevel;temperature;humidity
75668;BME280;64266;48.798;44.756;2023-04-25T00:01:31;100862.75;;;13.14;78.77
75668;BME280;64266;48.798;44.756;2023-04-25T00:06:36;100885.00;;;13.31;78.35
75668;BME280;64266;48.798;44.756;2023-04-25T00:11:40;100868.22;;;13.31;78.87
75668;BME280;64266;48.798;44.756;2023-04-25T00:16:43;100840.53;;;13.20;78.01
75668;BME280;64266;48.798;44.756;2023-04-25T00:21:46;100871.88;;;13.41;78.64
75668;BME280;64266;48.798;44.756;2023-04-25T00:26:48;100842.38;;;13.43;79.38
75668;BME280;64266;48.798;44.756;2023-04-25T00:31:51;100824.41;;;13.38;77.81
75668;BME280;64266;48.798;44.756;2023-04-25T00:36:54;100820.94;;;13.49;79.02
75668;BME280;64266;48.798;44.756;2023-04-25T00:41:58;100841.53;;;13.66;78.74
75668;BME280;64266;48.798;44.756;2023-04-25T00:47:02;100818.75;;;13.46;79.31
75668;BME280;64266;48.798;44.756;2023-04-25T00:52:06;100833.06;;;13.57;78.23
75668;BME280;64266;48.798;44.756;2023-04-25T00:57:09;100814.78;;;13.49;76.96
75668;BME280;64266;48.798;44.756;2023-04-25T01:02:12;100823.09;;;13.64;78.34
75668;BME280;64266;48.798;44.756;2023-04-25T01:07:15;100838.97;;;13.71;77.35
75668;BME280;64266;48.798;44.756;2023-04-25T01:12:18;100803.53;;;13.58;78.51
75668;BME280;64266;48.798;44.756;2023-04-25T01:17:21;100797.81;;;13.67;77.24
75668;BME280;64266;48.798;44.756;2023-04-25T01:22:25;100733.19;;;13.31;77.28
75668;BME280;64266;48.798;44.756;2023-04-25T01:27:29;100773.97;;;13.60;78.41
75668;BME280;64266;48.798;44.756;2023-04-25T01:32:33;100743.34;;;13.46;77.03
75668;BME280;64266;48.798;44.756;2023-04-25T01:37:42;100705.03;;;13.35;78.22
75668;BME280;64266;48.798;44.756;2023-04-25T01:42:46;100766.63;;;13.79;78.31
75668;BME280;64266;48.798;44.756;2023-04-25T01:47:49;100754.84;;;13.63;79.12
75668;BME280;64266;48.798;44.756;2023-04-25T01:52:53;100763.25;;;13.83;79.24
75668;BME280;64266;48.798;44.756;2023-04-25T01:57:57;100711.91;;;13.60;78.07
75668;BME280;64266;48.798;44.756;2023-04-25T02:03:12;100747.59;;;13.87;78.15
75668;BME280;64266;48.798;44.756;2023-04-25T02:08:16;100756.06;;;13.84;79.18
75668;BME280;64266;48.798;44.756;2023-04-25T02:13:20;100772.84;;;13.84;77.71
75668;BME280;64266;48.798;44.756;2023-04-25T02:18:39;100763.81;;;13.85;79.47
75668;BME280;64266;48.798;44.756;2023-04-25T02:23:42;100722.38;;;13.49;79.67
75668;BME280;64266;48.798;44.756;2023-04-25T02:28:50;100759.56;;;13.73;80.34
75668;BME280;64266;48.798;44.756;2023-04-25T02:33:54;100760.66;;;13.60;81.76
75668;BME280;64266;48.798;44.756;2023-04-25T02:38:57;100725.41;;;13.30;82.77
75668;BME280;64266;48.798;44.756;2023-04-25T02:44:00;100724.63;;;13.06;83.05
75668;BME280;64266;48.798;44.756;2023-04-25T02:49:03;100660.25;;;12.58;84.19
75668;BME280;64266;48.798;44.756;2023-04-25T02:54:06;100718.53;;;12.94;84.23
75668;BME280;64266;48.798;44.756;2023-04-25T02:59:14;100689.72;;;12.68;85.99
75668;BME280;64266;48.798;44.756;2023-04-25T03:04:16;100720.28;;;12.88;85.62
75668;BME280;64266;48.798;44.756;2023-04-25T03:09:21;100718.88;;;12.74;86.47
75668;BME280;64266;48.798;44.756;2023-04-25T03:14:25;100707.22;;;12.64;86.39
75668;BME280;64266;48.798;44.756;2023-04-25T03:19:29;100726.63;;;12.76;87.76
75668;BME280;64266;48.798;44.756;2023-04-25T03:24:32;100721.53;;;12.63;87.68
75668;BME280;64266;48.798;44.756;2023-04-25T03:29:35;100696.22;;;12.48;88.47
75668;BME280;64266;48.798;44.756;2023-04-25T03:34:39;100751.72;;;12.57;89.56
75668;BME280;64266;48.798;44.756;2023-04-25T03:39:42;100747.78;;;12.47;91.22
75668;BME280;64266;48.798;44.756;2023-04-25T03:44:45;100749.28;;;12.55;91.55
75668;BME280;64266;48.798;44.756;2023-04-25T03:49:49;100734.13;;;12.56;91.62
75668;BME280;64266;48.798;44.756;2023-04-25T03:54:57;100732.28;;;12.44;92.53
75668;BME280;64266;48.798;44.756;2023-04-25T04:00:00;100775.06;;;12.43;92.31
75668;BME280;64266;48.798;44.756;2023-04-25T04:05:14;100761.72;;;12.20;92.13
75668;BME280;64266;48.798;44.756;2023-04-25T04:10:24;100692.91;;;12.00;93.08
75668;BME280;64266;48.798;44.756;2023-04-25T04:15:29;100716.19;;;12.16;93.42
75668;BME280;64266;48.798;44.756;2023-04-25T04:20:35;100755.06;;;12.40;93.02
75668;BME280;64266;48.798;44.756;2023-04-25T04:25:40;100753.91;;;12.36;92.59
75668;BME280;64266;48.798;44.756;2023-04-25T04:31:16;100699.19;;;12.17;94.38
75668;BME280;64266;48.798;44.756;2023-04-25T04:36:22;100740.63;;;12.48;93.34
75668;BME280;64266;48.798;44.756;2023-04-25T04:41:25;100755.44;;;12.79;94.02
75668;BME280;64266;48.798;44.756;2023-04-25T04:46:42;100741.78;;;12.87;93.49
75668;BME280;64266;48.798;44.756;2023-04-25T04:52:07;100718.63;;;12.87;94.00
75668;BME280;64266;48.798;44.756;2023-04-25T04:57:29;100715.63;;;13.19;94.08
75668;BME280;64266;48.798;44.756;2023-04-25T05:02:52;100730.50;;;13.43;93.60
75668;BME280;64266;48.798;44.756;2023-04-25T05:08:14;100754.25;;;13.73;93.69
75668;BME280;64266;48.798;44.756;2023-04-25T05:13:39;100752.19;;;13.63;92.57
75668;BME280;64266;48.798;44.756;2023-04-25T05:18:59;100740.75;;;13.51;92.44
75668;BME280;64266;48.798;44.756;2023-04-25T05:24:21;100748.16;;;13.61;93.02
75668;BME280;64266;48.798;44.756;2023-04-25T05:30:04;100753.72;;;13.87;92.58
75668;BME280;64266;48.798;44.756;2023-04-25T05:35:23;100738.53;;;13.88;92.41
75668;BME280;64266;48.798;44.756;2023-04-25T05:40:27;100728.47;;;13.62;91.42
75668;BME280;64266;48.798;44.756;2023-04-25T05:45:51;100707.50;;;13.53;91.10
75668;BME280;64266;48.798;44.756;2023-04-25T05:51:19;100758.91;;;13.94;91.67
75668;BME280;64266;48.798;44.756;2023-04-25T05:56:41;100775.13;;;14.21;91.21
75668;BME280;64266;48.798;44.756;2023-04-25T06:01:46;100686.66;;;13.79;89.52
75668;BME280;64266;48.798;44.756;2023-04-25T06:06:49;100775.81;;;14.78;90.17
75668;BME280;64266;48.798;44.756;2023-04-25T06:11:53;100764.66;;;14.81;89.32
75668;BME280;64266;48.798;44.756;2023-04-25T06:16:57;100731.06;;;14.85;88.95
75668;BME280;64266;48.798;44.756;2023-04-25T06:22:01;100781.69;;;15.78;86.74
75668;BME280;64266;48.798;44.756;2023-04-25T06:27:06;100751.53;;;15.83;87.18
75668;BME280;64266;48.798;44.756;2023-04-25T06:32:09;100757.91;;;15.77;87.07
75668;BME280;64266;48.798;44.756;2023-04-25T06:37:12;100778.72;;;16.28;86.00
75668;BME280;64266;48.798;44.756;2023-04-25T06:42:17;100763.22;;;16.57;85.99
75668;BME280;64266;48.798;44.756;2023-04-25T06:47:27;100721.66;;;16.17;86.36
75668;BME280;64266;48.798;44.756;2023-04-25T06:52:31;100791.69;;;16.41;85.93
75668;BME280;64266;48.798;44.756;2023-04-25T06:57:36;100796.00;;;16.42;87.49
75668;BME280;64266;48.798;44.756;2023-04-25T07:03:00;100751.72;;;16.30;83.62
75668;BME280;64266;48.798;44.756;2023-04-25T07:08:05;100731.56;;;16.54;85.71
75668;BME280;64266;48.798;44.756;2023-04-25T07:13:08;100720.34;;;16.99;85.75
75668;BME280;64266;48.798;44.756;2023-04-25T07:18:13;100752.19;;;17.42;86.75
75668;BME280;64266;48.798;44.756;2023-04-25T07:23:20;100783.78;;;18.07;86.31
75668;BME280;64266;48.798;44.756;2023-04-25T07:28:28;100716.34;;;17.63;85.40
75668;BME280;64266;48.798;44.756;2023-04-25T07:33:33;100769.00;;;17.95;86.34
75668;BME280;64266;48.798;44.756;2023-04-25T07:38:37;100774.13;;;17.96;84.34
75668;BME280;64266;48.798;44.756;2023-04-25T07:43:43;100778.16;;;17.99;78.93
75668;BME280;64266;48.798;44.756;2023-04-25T07:48:46;100777.59;;;17.92;80.62
75668;BME280;64266;48.798;44.756;2023-04-25T07:53:50;100717.63;;;17.51;83.71
75668;BME280;64266;48.798;44.756;2023-04-25T07:58:56;100780.78;;;17.88;82.79
75668;BME280;64266;48.798;44.756;2023-04-25T08:03:59;100763.06;;;17.87;82.61
75668;BME280;64266;48.798;44.756;2023-04-25T08:09:29;100764.22;;;18.32;82.91
75668;BME280;64266;48.798;44.756;2023-04-25T08:14:38;100782.25;;;18.52;83.71
75668;BME280;64266;48.798;44.756;2023-04-25T08:19:44;100759.41;;;18.49;82.29
75668;BME280;64266;48.798;44.756;2023-04-25T08:24:56;100752.66;;;18.31;83.61
75668;BME280;64266;48.798;44.756;2023-04-25T08:30:01;100768.53;;;18.33;83.14
75668;BME280;64266;48.798;44.756;2023-04-25T08:35:06;100787.03;;;18.34;81.56
75668;BME280;64266;48.798;44.756;2023-04-25T08:40:12;100799.66;;;18.24;81.82
75668;BME280;64266;48.798;44.756;2023-04-25T08:45:35;100799.63;;;18.19;81.64
75668;BME280;64266;48.798;44.756;2023-04-25T08:50:53;100768.22;;;18.04;82.56
75668;BME280;64266;48.798;44.756;2023-04-25T08:56:03;100798.31;;;18.47;80.37
75668;BME280;64266;48.798;44.756;2023-04-25T09:01:10;100766.34;;;18.40;78.37
75668;BME280;64266;48.798;44.756;2023-04-25T09:06:21;100780.34;;;18.62;79.25
75668;BME280;64266;48.798;44.756;2023-04-25T09:11:25;100727.16;;;18.44;81.19
75668;BME280;64266;48.798;44.756;2023-04-25T09:16:30;100717.78;;;18.57;79.87
75668;BME280;64266;48.798;44.756;2023-04-25T09:22:01;100737.06;;;18.89;77.30
75668;BME280;64266;48.798;44.756;2023-04-25T09:27:10;100751.84;;;18.91;73.90
75668;BME280;64266;48.798;44.756;2023-04-25T09:32:21;100775.75;;;19.03;75.76
75668;BME280;64266;48.798;44.756;2023-04-25T09:37:29;100776.81;;;19.02;75.30
75668;BME280;64266;48.798;44.756;2023-04-25T09:42:52;100804.16;;;19.34;77.03
75668;BME280;64266;48.798;44.756;2023-04-25T09:47:56;100797.47;;;19.17;70.09
75668;BME280;64266;48.798;44.756;2023-04-25T09:53:07;100786.19;;;19.15;73.06
75668;BME280;64266;48.798;44.756;2023-04-25T09:58:31;100774.28;;;19.36;73.77
75668;BME280;64266;48.798;44.756;2023-04-25T10:03:39;100807.03;;;19.63;73.45
75668;BME280;64266;48.798;44.756;2023-04-25T10:09:01;100789.31;;;19.52;68.36
75668;BME280;64266;48.798;44.756;2023-04-25T10:14:06;100787.97;;;19.55;74.05
75668;BME280;64266;48.798;44.756;2023-04-25T10:19:13;100776.88;;;19.71;69.18
75668;BME280;64266;48.798;44.756;2023-04-25T10:24:16;100796.88;;;19.45;66.84
75668;BME280;64266;48.798;44.756;2023-04-25T10:29:24;100795.75;;;19.61;69.76
75668;BME280;64266;48.798;44.756;2023-04-25T10:34:40;100804.31;;;19.68;70.90
75668;BME280;64266;48.798;44.756;2023-04-25T10:39:44;100808.06;;;19.77;70.04
75668;BME280;64266;48.798;44.756;2023-04-25T10:45:01;100812.06;;;19.80;69.63
75668;BME280;64266;48.798;44.756;2023-04-25T10:50:10;100820.44;;;19.73;67.50
75668;BME280;64266;48.798;44.756;2023-04-25T10:55:13;100825.31;;;19.71;68.93
75668;BME280;64266;48.798;44.756;2023-04-25T11:00:18;100817.44;;;19.80;68.63
75668;BME280;64266;48.798;44.756;2023-04-25T11:05:35;100795.41;;;19.73;68.21
75668;BME280;64266;48.798;44.756;2023-04-25T11:10:56;100797.31;;;19.67;71.44
75668;BME280;64266;48.798;44.756;2023-04-25T11:15:59;100817.97;;;19.87;69.33
75668;BME280;64266;48.798;44.756;2023-04-25T11:21:15;100802.16;;;19.70;67.95
75668;BME280;64266;48.798;44.756;2023-04-25T11:26:19;100807.97;;;19.87;70.57
75668;BME280;64266;48.798;44.756;2023-04-25T11:31:24;100805.75;;;19.99;67.00
75668;BME280;64266;48.798;44.756;2023-04-25T11:36:38;100805.03;;;19.89;66.48
75668;BME280;64266;48.798;44.756;2023-04-25T11:41:43;100800.47;;;19.84;64.13
75668;BME280;64266;48.798;44.756;2023-04-25T11:47:17;100799.97;;;19.77;68.57
75668;BME280;64266;48.798;44.756;2023-04-25T11:52:43;100801.06;;;19.76;67.91
75668;BME280;64266;48.798;44.756;2023-04-25T11:57:50;100800.03;;;19.67;67.37
75668;BME280;64266;48.798;44.756;2023-04-25T12:02:58;100781.03;;;19.43;67.94
75668;BME280;64266;48.798;44.756;2023-04-25T12:08:10;100804.69;;;19.41;68.94
75668;BME280;64266;48.798;44.756;2023-04-25T12:13:24;100791.00;;;19.28;67.74
75668;BME280;64266;48.798;44.756;2023-04-25T12:18:28;100796.63;;;19.36;68.17
75668;BME280;64266;48.798;44.756;2023-04-25T12:23:31;100811.91;;;19.56;68.77
75668;BME280;64266;48.798;44.756;2023-04-25T12:28:37;100727.34;;;19.08;67.90
75668;BME280;64266;48.798;44.756;2023-04-25T12:33:41;100826.97;;;19.57;67.13
75668;BME280;64266;48.798;44.756;2023-04-25T12:39:00;100796.34;;;19.33;67.47
75668;BME280;64266;48.798;44.756;2023-04-25T12:44:06;100839.66;;;19.46;65.51
75668;BME280;64266;48.798;44.756;2023-04-25T12:49:10;100827.56;;;19.24;66.26
75668;BME280;64266;48.798;44.756;2023-04-25T12:54:18;100858.22;;;19.23;64.40
75668;BME280;64266;48.798;44.756;2023-04-25T12:59:22;100849.41;;;19.07;62.62
75668;BME280;64266;48.798;44.756;2023-04-25T13:04:27;100859.56;;;19.30;63.62
75668;BME280;64266;48.798;44.756;2023-04-25T13:09:33;100844.22;;;19.26;64.47
75668;BME280;64266;48.798;44.756;2023-04-25T13:14:35;100843.16;;;19.42;65.60
75668;BME280;64266;48.798;44.756;2023-04-25T13:19:38;100848.53;;;19.42;60.44
75668;BME280;64266;48.798;44.756;2023-04-25T13:24:42;100837.00;;;19.16;62.82
75668;BME280;64266;48.798;44.756;2023-04-25T13:29:45;100839.16;;;19.09;60.13
75668;BME280;64266;48.798;44.756;2023-04-25T13:34:48;100847.53;;;18.98;63.36
75668;BME280;64266;48.798;44.756;2023-04-25T13:39:52;100840.53;;;18.86;64.36
75668;BME280;64266;48.798;44.756;2023-04-25T13:44:55;100842.69;;;18.84;60.48
75668;BME280;64266;48.798;44.756;2023-04-25T13:49:57;100841.88;;;18.79;63.31
75668;BME280;64266;48.798;44.756;2023-04-25T13:55:02;100839.47;;;18.72;63.41
75668;BME280;64266;48.798;44.756;2023-04-25T14:00:07;100819.84;;;18.62;63.42
75668;BME280;64266;48.798;44.756;2023-04-25T14:05:12;100729.84;;;17.99;55.93
75668;BME280;64266;48.798;44.756;2023-04-25T14:10:19;100784.63;;;18.33;56.54
75668;BME280;64266;48.798;44.756;2023-04-25T14:15:22;100800.72;;;18.43;59.33
75668;BME280;64266;48.798;44.756;2023-04-25T14:20:27;100838.66;;;18.82;59.88
75668;BME280;64266;48.798;44.756;2023-04-25T14:25:31;100843.75;;;18.83;57.51
75668;BME280;64266;48.798;44.756;2023-04-25T14:30:41;100757.78;;;18.28;55.16
75668;BME280;64266;48.798;44.756;2023-04-25T14:35:53;100730.63;;;17.89;54.69
75668;BME280;64266;48.798;44.756;2023-04-25T14:40:58;100781.13;;;18.22;54.48
75668;BME280;64266;48.798;44.756;2023-04-25T14:46:05;100766.06;;;18.06;52.49
75668;BME280;64266;48.798;44.756;2023-04-25T14:51:09;100823.28;;;18.37;52.66
75668;BME280;64266;48.798;44.756;2023-04-25T14:56:12;100761.44;;;17.76;52.51
75668;BME280;64266;48.798;44.756;2023-04-25T15:01:16;100762.94;;;17.47;52.49
75668;BME280;64266;48.798;44.756;2023-04-25T15:06:20;100814.50;;;17.59;52.65
75668;BME280;64266;48.798;44.756;2023-04-25T15:11:23;100764.47;;;17.33;52.85
75668;BME280;64266;48.798;44.756;2023-04-25T15:16:27;100808.72;;;17.35;53.01
75668;BME280;64266;48.798;44.756;2023-04-25T15:21:31;100821.59;;;17.33;52.98
75668;BME280;64266;48.798;44.756;2023-04-25T15:26:34;100775.75;;;16.88;53.77
75668;BME280;64266;48.798;44.756;2023-04-25T15:31:37;100832.47;;;17.17;54.74
75668;BME280;64266;48.798;44.756;2023-04-25T15:36:40;100858.72;;;17.15;53.72
75668;BME280;64266;48.798;44.756;2023-04-25T15:41:44;100835.97;;;16.80;54.23
75668;BME280;64266;48.798;44.756;2023-04-25T15:46:46;100844.94;;;16.64;54.32
75668;BME280;64266;48.798;44.756;2023-04-25T15:51:49;100785.91;;;16.22;55.01
75668;BME280;64266;48.798;44.756;2023-04-25T15:56:52;100879.00;;;16.69;54.99
75668;BME280;64266;48.798;44.756;2023-04-25T16:01:55;100791.84;;;16.03;54.89
75668;BME280;64266;48.798;44.756;2023-04-25T16:06:58;100851.09;;;16.11;56.53
75668;BME280;64266;48.798;44.756;2023-04-25T16:12:01;100868.06;;;16.00;56.29
75668;BME280;64266;48.798;44.756;2023-04-25T16:17:03;100848.50;;;15.73;56.11
75668;BME280;64266;48.798;44.756;2023-04-25T16:22:06;100908.88;;;15.91;57.19
75668;BME280;64266;48.798;44.756;2023-04-25T16:27:10;100912.50;;;15.80;57.53
75668;BME280;64266;48.798;44.756;2023-04-25T16:32:13;100888.03;;;15.49;58.35
75668;BME280;64266;48.798;44.756;2023-04-25T16:37:15;100906.38;;;15.46;58.80
75668;BME280;64266;48.798;44.756;2023-04-25T16:42:20;100939.25;;;15.46;58.62
75668;BME280;64266;48.798;44.756;2023-04-25T16:47:22;100927.19;;;15.27;59.13
75668;BME280;64266;48.798;44.756;2023-04-25T16:52:30;100948.03;;;15.25;59.67
75668;BME280;64266;48.798;44.756;2023-04-25T16:57:34;100903.66;;;14.91;60.78
75668;BME280;64266;48.798;44.756;2023-04-25T17:02:44;100940.06;;;14.97;60.72
75668;BME280;64266;48.798;44.756;2023-04-25T17:07:48;100949.28;;;14.89;61.40
75668;BME280;64266;48.798;44.756;2023-04-25T17:12:51;100908.38;;;14.55;61.94
75668;BME280;64266;48.798;44.756;2023-04-25T17:17:54;100913.28;;;14.47;61.70
75668;BME280;64266;48.798;44.756;2023-04-25T17:22:58;100902.53;;;14.30;62.36
75668;BME280;64266;48.798;44.756;2023-04-25T17:28:01;100957.56;;;14.59;63.14
75668;BME280;64266;48.798;44.756;2023-04-25T17:33:04;100919.50;;;14.24;63.13
75668;BME280;64266;48.798;44.756;2023-04-25T17:38:08;100975.09;;;14.55;62.94
75668;BME280;64266;48.798;44.756;2023-04-25T17:43:11;100863.03;;;13.76;63.65
75668;BME280;64266;48.798;44.756;2023-04-25T17:48:14;100955.47;;;14.10;63.47
75668;BME280;64266;48.798;44.756;2023-04-25T17:53:17;100983.63;;;14.29;64.06
75668;BME280;64266;48.798;44.756;2023-04-25T17:58:19;100954.19;;;14.12;64.74
75668;BME280;64266;48.798;44.756;2023-04-25T18:03:22;100960.47;;;14.06;64.66
75668;BME280;64266;48.798;44.756;2023-04-25T18:08:25;100845.06;;;13.31;65.19
75668;BME280;64266;48.798;44.756;2023-04-25T18:13:28;100875.97;;;13.44;64.64
75668;BME280;64266;48.798;44.756;2023-04-25T18:18:31;100973.34;;;13.98;65.77
75668;BME280;64266;48.798;44.756;2023-04-25T18:23:36;100901.91;;;13.48;65.97
75668;BME280;64266;48.798;44.756;2023-04-25T18:28:40;100956.13;;;13.77;65.48
75668;BME280;64266;48.798;44.756;2023-04-25T18:33:43;100946.72;;;13.63;66.00
75668;BME280;64266;48.798;44.756;2023-04-25T18:38:45;100865.88;;;13.11;66.08
75668;BME280;64266;48.798;44.756;2023-04-25T18:43:53;100985.78;;;13.81;66.46
75668;BME280;64266;48.798;44.756;2023-04-25T18:48:57;100875.22;;;13.02;66.53
75668;BME280;64266;48.798;44.756;2023-04-25T18:54:00;100915.22;;;13.25;67.19
75668;BME280;64266;48.798;44.756;2023-04-25T18:59:03;100877.06;;;12.90;66.88
75668;BME280;64266;48.798;44.756;2023-04-25T19:04:06;100955.19;;;13.25;67.57
75668;BME280;64266;48.798;44.756;2023-04-25T19:09:11;100948.31;;;13.18;67.16
75668;BME280;64266;48.798;44.756;2023-04-25T19:14:14;100906.78;;;12.87;67.61
75668;BME280;64266;48.798;44.756;2023-04-25T19:19:17;100936.59;;;13.07;67.60
75668;BME280;64266;48.798;44.756;2023-04-25T19:24:20;100895.78;;;12.72;67.25
75668;BME280;64266;48.798;44.756;2023-04-25T19:29:22;100901.81;;;12.79;67.14
75668;BME280;64266;48.798;44.756;2023-04-25T19:34:25;100884.41;;;12.65;67.42
75668;BME280;64266;48.798;44.756;2023-04-25T19:39:28;100915.13;;;12.79;66.91
75668;BME280;64266;48.798;44.756;2023-04-25T19:44:31;100973.88;;;13.07;67.29
75668;BME280;64266;48.798;44.756;2023-04-25T19:49:33;100973.66;;;13.09;67.36
75668;BME280;64266;48.798;44.756;2023-04-25T19:54:36;100974.53;;;13.02;68.23
75668;BME280;64266;48.798;44.756;2023-04-25T19:59:39;100881.03;;;12.28;68.15
75668;BME280;64266;48.798;44.756;2023-04-25T20:04:42;100884.84;;;12.20;68.49
75668;BME280;64266;48.798;44.756;2023-04-25T20:09:45;100917.66;;;12.44;68.82
75668;BME280;64266;48.798;44.756;2023-04-25T20:14:47;100990.91;;;12.76;68.31
75668;BME280;64266;48.798;44.756;2023-04-25T20:19:51;100932.22;;;12.41;68.83
75668;BME280;64266;48.798;44.756;2023-04-25T20:24:54;100880.63;;;12.13;68.35
75668;BME280;64266;48.798;44.756;2023-04-25T20:29:58;100910.56;;;12.38;68.29
75668;BME280;64266;48.798;44.756;2023-04-25T20:35:07;101000.03;;;12.80;68.25
75668;BME280;64266;48.798;44.756;2023-04-25T20:40:11;100980.03;;;12.78;68.03
75668;BME280;64266;48.798;44.756;2023-04-25T20:45:15;100997.28;;;12.87;67.46
75668;BME280;64266;48.798;44.756;2023-04-25T20:50:19;100906.06;;;12.38;68.03
75668;BME280;64266;48.798;44.756;2023-04-25T20:55:23;100979.91;;;12.73;67.46
75668;BME280;64266;48.798;44.756;2023-04-25T21:00:26;100968.06;;;12.69;68.26
75668;BME280;64266;48.798;44.756;2023-04-25T21:05:31;100921.47;;;12.36;67.52
75668;BME280;64266;48.798;44.756;2023-04-25T21:10:33;100894.28;;;12.16;67.81
75668;BME280;64266;48.798;44.756;2023-04-25T21:15:38;100914.81;;;12.27;67.79
75668;BME280;64266;48.798;44.756;2023-04-25T21:20:41;100895.88;;;12.06;68.59
75668;BME280;64266;48.798;44.756;2023-04-25T21:25:47;100933.53;;;12.21;69.11
75668;BME280;64266;48.798;44.756;2023-04-25T21:30:53;100930.09;;;12.32;68.28
75668;BME280;64266;48.798;44.756;2023-04-25T21:35:56;100922.63;;;12.22;68.77
75668;BME280;64266;48.798;44.756;2023-04-25T21:40:59;100877.34;;;11.99;68.33
75668;BME280;64266;48.798;44.756;2023-04-25T21:46:03;100851.13;;;11.84;69.05
75668;BME280;64266;48.798;44.756;2023-04-25T21:51:09;100846.06;;;11.83;68.94
75668;BME280;64266;48.798;44.756;2023-04-25T21:56:13;100975.09;;;12.63;68.87
75668;BME280;64266;48.798;44.756;2023-04-25T22:01:16;100992.50;;;12.77;69.58
75668;BME280;64266;48.798;44.756;2023-04-25T22:06:19;100939.78;;;12.56;70.27
75668;BME280;64266;48.798;44.756;2023-04-25T22:11:23;100986.63;;;12.87;70.54
75668;BME280;64266;48.798;44.756;2023-04-25T22:16:26;100931.00;;;12.56;69.79
75668;BME280;64266;48.798;44.756;2023-04-25T22:21:31;100980.78;;;12.96;69.84
75668;BME280;64266;48.798;44.756;2023-04-25T22:26:34;100944.25;;;12.74;69.79
75668;BME280;64266;48.798;44.756;2023-04-25T22:31:39;100884.06;;;12.31;69.57
75668;BME280;64266;48.798;44.756;2023-04-25T22:36:42;100910.53;;;12.56;69.32
75668;BME280;64266;48.798;44.756;2023-04-25T22:41:45;100868.28;;;12.36;69.74
75668;BME280;64266;48.798;44.756;2023-04-25T22:46:50;100869.31;;;12.47;70.27
75668;BME280;64266;48.798;44.756;2023-04-25T22:51:52;100908.34;;;12.65;70.00
75668;BME280;64266;48.798;44.756;2023-04-25T22:56:57;100922.47;;;12.65;71.07
75668;BME280;64266;48.798;44.756;2023-04-25T23:02:01;100987.19;;;13.07;70.08
75668;BME280;64266;48.798;44.756;2023-04-25T23:07:04;100921.34;;;12.73;70.69
75668;BME280;64266;48.798;44.756;2023-04-25T23:12:06;100970.59;;;13.05;70.73
75668;BME280;64266;48.798;44.756;2023-04-25T23:17:09;100881.59;;;12.48;70.70
75668;BME280;64266;48.798;44.756;2023-04-25T23:22:12;101005.78;;;13.25;70.79
75668;BME280;64266;48.798;44.756;2023-04-25T23:27:16;100950.81;;;13.01;71.52
75668;BME280;64266;48.798;44.756;2023-04-25T23:32:20;100899.34;;;12.66;70.95
75668;BME280;64266;48.798;44.756;2023-04-25T23:37:23;101011.69;;;13.27;71.65
75668;BME280;64266;48.798;44.756;2023-04-25T23:42:26;100907.00;;;12.74;70.94
75668;BME280;64266;48.798;44.756;2023-04-25T23:47:28;101011.22;;;13.42;71.66
75668;BME280;64266;48.798;44.756;2023-04-25T23:52:32;100933.97;;;12.89;71.29
75668;BME280;64266;48.798;44.756;2023-04-25T23:57:35;100879.88;;;12.54;71.04
